createdAt,value
2022-09-22T00:01:34.447Z,1.85
2022-09-22T00:04:13.809Z,1.80
2022-09-22T00:06:51.359Z,1.67
2022-09-22T00:09:21.487Z,1.98
2022-09-22T00:11:53.957Z,1.50
2022-09-22T00:14:28.195Z,1.55
2022-09-22T00:17:02.153Z,1.48
2022-09-22T00:19:39.191Z,1.55
2022-09-22T00:22:07.053Z,1.50
2022-09-22T00:24:35.132Z,1.30
2022-09-22T00:27:02.836Z,1.60
2022-09-22T00:29:30.915Z,1.60
2022-09-22T00:32:00.380Z,1.27
2022-09-22T00:34:30.886Z,1.40
2022-09-22T00:36:58.203Z,1.30
2022-09-22T00:39:27.192Z,1.48
2022-09-22T00:41:54.474Z,1.40
2022-09-22T00:44:29.893Z,1.42
2022-09-22T00:47:47.856Z,1.75
2022-09-22T00:50:23.488Z,1.40
2022-09-22T00:53:10.298Z,1.27
2022-09-22T00:56:01.599Z,1.40
2022-09-22T00:58:37.903Z,1.40
2022-09-22T01:01:07.757Z,1.90
2022-09-22T01:03:39.173Z,1.70
2022-09-22T01:06:12.588Z,1.70
2022-09-22T01:08:40.661Z,1.48
2022-09-22T01:11:08.347Z,1.60
2022-09-22T01:14:48.716Z,1.38
2022-09-22T01:17:47.252Z,1.60
2022-09-22T01:21:11.231Z,1.40
2022-09-22T01:24:41.128Z,1.80
2022-09-22T01:27:53.876Z,1.47
2022-09-22T01:30:43.655Z,1.35
2022-09-22T01:33:40.952Z,1.70
2022-09-22T01:36:40.147Z,1.60
2022-09-22T01:39:53.844Z,1.58
2022-09-22T01:42:40.076Z,1.17
2022-09-22T01:45:18.573Z,1.52
2022-09-22T01:47:55.084Z,1.50
2022-09-22T01:50:45.283Z,1.45
2022-09-22T01:53:18.409Z,1.67
2022-09-22T01:55:59.124Z,1.92
2022-09-22T02:01:20.419Z,1.70
2022-09-22T02:04:09.420Z,1.33
2022-09-22T02:06:48.456Z,1.40
2022-09-22T02:09:21.503Z,1.88
2022-09-22T02:11:49.255Z,1.38
2022-09-22T02:14:17.249Z,1.45
2022-09-22T02:16:44.756Z,1.60
2022-09-22T02:19:36.233Z,1.33
2022-09-22T02:22:07.043Z,1.45
2022-09-22T02:24:44.510Z,1.65
2022-09-22T02:27:27.532Z,1.70
2022-09-22T02:30:11.104Z,1.23
2022-09-22T02:32:46.155Z,1.30
2022-09-22T02:35:14.493Z,1.60
2022-09-22T02:37:56.087Z,1.23
2022-09-22T02:41:00.757Z,1.63
2022-09-22T02:43:58.606Z,0.90
2022-09-22T02:47:07.859Z,1.60
2022-09-22T02:49:35.503Z,1.50
2022-09-22T02:52:08.939Z,1.40
2022-09-22T02:54:36.260Z,1.17
2022-09-22T02:57:03.663Z,1.15
2022-09-22T02:59:30.923Z,1.23
2022-09-22T03:01:58.226Z,1.42
2022-09-22T03:04:25.919Z,1.25
2022-09-22T03:06:54.004Z,1.38
2022-09-22T03:09:21.255Z,1.85
2022-09-22T03:11:48.531Z,1.70
2022-09-22T03:14:15.823Z,1.38
2022-09-22T03:16:43.080Z,1.30
2022-09-22T03:19:10.327Z,1.40
2022-09-22T03:21:38.147Z,1.20
2022-09-22T03:24:05.952Z,1.23
2022-09-22T03:26:34.795Z,1.40
2022-09-22T03:29:03.872Z,1.50
2022-09-22T03:31:31.123Z,1.38
2022-09-22T03:34:02.004Z,1.40
2022-09-22T03:36:29.301Z,1.80
2022-09-22T03:38:56.788Z,1.65
2022-09-22T03:41:24.260Z,1.65
2022-09-22T03:43:51.571Z,1.90
2022-09-22T03:46:18.992Z,1.40
2022-09-22T03:48:46.281Z,1.40
2022-09-22T03:51:13.698Z,1.55
2022-09-22T03:53:41.243Z,1.83
2022-09-22T03:56:14.613Z,1.40
2022-09-22T03:58:43.100Z,1.70
2022-09-22T04:01:11.596Z,1.67
2022-09-22T04:03:39.884Z,1.30
2022-09-22T04:06:07.932Z,1.33
2022-09-22T04:08:35.979Z,1.52
2022-09-22T04:11:06.704Z,1.42
2022-09-22T04:13:35.472Z,1.45
2022-09-22T04:16:05.320Z,1.60
2022-09-22T04:18:32.862Z,1.38
2022-09-22T04:21:01.109Z,1.25
2022-09-22T04:23:28.391Z,1.40
2022-09-22T04:25:56.488Z,2.17
2022-09-22T04:28:23.739Z,1.70
2022-09-22T04:30:52.838Z,1.50
2022-09-22T04:33:20.388Z,1.42
2022-09-22T04:35:51.887Z,1.42
2022-09-22T04:38:19.460Z,1.85
2022-09-22T04:40:46.910Z,1.50
2022-09-22T04:43:14.256Z,1.48
2022-09-22T04:45:47.267Z,1.63
2022-09-22T04:48:16.817Z,1.40
2022-09-22T04:50:48.070Z,1.40
2022-09-22T04:53:16.148Z,1.73
2022-09-22T04:55:43.397Z,1.33
2022-09-22T04:58:10.669Z,1.55
2022-09-22T05:00:38.528Z,1.88
2022-09-22T05:03:13.002Z,1.35
2022-09-22T05:05:40.517Z,1.50
2022-09-22T05:08:07.878Z,1.75
2022-09-22T05:10:35.795Z,1.20
2022-09-22T05:13:04.108Z,1.70
2022-09-22T05:15:33.155Z,1.92
2022-09-22T05:18:00.564Z,2.00
2022-09-22T05:20:28.644Z,1.42
2022-09-22T05:22:55.898Z,1.50
2022-09-22T05:25:23.212Z,1.40
2022-09-22T05:27:55.263Z,1.45
2022-09-22T05:30:26.463Z,1.88
2022-09-22T05:32:54.783Z,1.80
2022-09-22T05:35:25.028Z,1.70
2022-09-22T05:37:53.721Z,1.55
2022-09-22T05:40:24.092Z,1.75
2022-09-22T05:42:53.637Z,1.73
2022-09-22T05:45:21.952Z,1.58
2022-09-22T05:47:49.633Z,2.22
2022-09-22T05:50:20.728Z,1.77
2022-09-22T05:52:48.047Z,2.05
2022-09-22T05:55:15.716Z,1.90
2022-09-22T05:57:43.964Z,2.28
2022-09-22T06:00:13.572Z,2.22
2022-09-22T06:02:43.998Z,2.22
2022-09-22T06:05:11.409Z,2.17
2022-09-22T06:07:38.768Z,2.55
2022-09-22T06:10:07.609Z,2.38
2022-09-22T06:12:34.861Z,2.58
2022-09-22T06:15:02.179Z,2.60
2022-09-22T06:17:29.550Z,2.38
2022-09-22T06:20:00.798Z,2.45
2022-09-22T06:22:28.193Z,2.10
2022-09-22T06:24:55.456Z,2.50
2022-09-22T06:27:22.756Z,2.58
2022-09-22T06:29:50.020Z,2.85
2022-09-22T06:32:19.421Z,2.50
2022-09-22T06:34:47.543Z,2.40
2022-09-22T06:37:16.147Z,2.60
2022-09-22T06:39:43.427Z,2.35
2022-09-22T06:42:10.911Z,2.55
2022-09-22T06:44:38.720Z,2.65
2022-09-22T06:47:06.030Z,3.40
2022-09-22T06:49:33.315Z,3.03
2022-09-22T06:52:00.697Z,3.92
2022-09-22T06:54:28.767Z,4.10
2022-09-22T06:56:56.050Z,3.75
2022-09-22T06:59:23.323Z,3.55
2022-09-22T07:01:50.658Z,3.47
2022-09-22T07:04:18.039Z,3.80
2022-09-22T07:06:45.754Z,3.88
2022-09-22T07:09:13.073Z,2.97
2022-09-22T07:11:40.694Z,3.15
2022-09-22T07:14:09.105Z,3.45
2022-09-22T07:16:37.191Z,3.10
2022-09-22T07:19:05.570Z,2.70
2022-09-22T07:21:36.360Z,2.63
2022-09-22T07:24:08.188Z,2.60
2022-09-22T07:26:39.983Z,3.15
2022-09-22T07:29:13.816Z,2.40
2022-09-22T07:31:42.040Z,2.05
2022-09-22T07:34:09.500Z,2.60
2022-09-22T07:36:40.033Z,3.42
2022-09-22T07:39:11.122Z,3.03
2022-09-22T07:41:43.083Z,2.55
2022-09-22T07:44:34.771Z,2.80
2022-09-22T07:47:03.701Z,2.45
2022-09-22T07:49:31.108Z,2.78
2022-09-22T07:51:58.868Z,2.63
2022-09-22T07:54:27.897Z,2.60
2022-09-22T07:56:58.352Z,2.50
2022-09-22T07:59:27.167Z,2.40
2022-09-22T08:01:54.534Z,3.30
2022-09-22T08:04:23.702Z,2.40
2022-09-22T08:06:56.803Z,2.58
2022-09-22T08:09:27.088Z,2.58
2022-09-22T08:11:55.082Z,2.67
2022-09-22T08:14:23.174Z,2.42
2022-09-22T08:16:53.437Z,3.25
2022-09-22T08:21:54.448Z,1.92
2022-09-22T08:24:23.524Z,2.65
2022-09-22T08:26:55.835Z,2.33
2022-09-22T08:29:24.487Z,2.17
2022-09-22T08:31:52.077Z,2.47
2022-09-22T08:34:20.235Z,2.22
2022-09-22T08:36:50.286Z,2.15
2022-09-22T08:39:18.758Z,2.38
2022-09-22T08:42:15.722Z,2.05
2022-09-22T08:45:30.076Z,2.08
2022-09-22T08:48:39.864Z,1.77
2022-09-22T08:51:42.988Z,1.90
2022-09-22T08:54:10.692Z,1.85
2022-09-22T08:56:59.152Z,1.80
2022-09-22T08:59:52.079Z,2.25
2022-09-22T09:03:16.579Z,1.85
2022-09-22T09:06:04.214Z,1.95
2022-09-22T09:09:05.720Z,1.98
2022-09-22T09:12:17.984Z,1.77
2022-09-22T09:15:43.665Z,1.50
2022-09-22T09:18:22.956Z,2.15
2022-09-22T09:20:52.700Z,1.50
2022-09-22T09:26:20.633Z,1.67
2022-09-22T09:29:03.044Z,1.67
2022-09-22T09:31:48.922Z,1.60
2022-09-22T09:34:24.554Z,1.48
2022-09-22T09:37:07.797Z,1.73
2022-09-22T09:39:42.596Z,2.10
2022-09-22T09:42:27.412Z,1.90
2022-09-22T09:44:57.627Z,1.48
2022-09-22T09:48:17.269Z,1.90
2022-09-22T09:50:44.603Z,1.65
2022-09-22T09:53:44.009Z,1.60
2022-09-22T09:56:29.938Z,2.00
2022-09-22T09:59:26.397Z,1.60
2022-09-22T10:01:54.813Z,1.60
2022-09-22T10:04:35.208Z,1.55
2022-09-22T10:07:41.860Z,1.63
2022-09-22T10:10:37.337Z,1.30
2022-09-22T10:13:26.152Z,1.40
2022-09-22T10:16:22.540Z,1.40
2022-09-22T10:18:58.904Z,1.63
2022-09-22T10:21:28.156Z,1.05
2022-09-22T10:24:00.747Z,1.35
2022-09-22T10:26:33.463Z,1.30
2022-09-22T10:29:12.459Z,1.25
2022-09-22T10:31:41.945Z,1.05
2022-09-22T10:34:41.839Z,1.23
2022-09-22T10:37:23.301Z,1.13
2022-09-22T10:40:03.145Z,1.40
2022-09-22T10:42:46.177Z,1.33
2022-09-22T10:45:20.125Z,1.25
2022-09-22T10:48:54.800Z,1.40
2022-09-22T10:52:43.776Z,1.45
2022-09-22T10:56:21.096Z,1.60
2022-09-22T10:59:44.159Z,1.05
2022-09-22T11:03:07.798Z,1.30
2022-09-22T11:07:31.988Z,1.40
2022-09-22T11:10:34.439Z,1.20
2022-09-22T11:14:00.476Z,1.05
2022-09-22T11:17:17.206Z,1.35
2022-09-22T11:20:22.982Z,1.50
2022-09-22T11:23:24.767Z,1.40
2022-09-22T11:26:02.455Z,1.10
2022-09-22T11:29:23.405Z,1.13
2022-09-22T11:32:30.160Z,1.20
2022-09-22T11:35:37.417Z,1.00
2022-09-22T11:39:12.195Z,1.23
2022-09-22T11:42:46.056Z,0.90
2022-09-22T11:46:06.768Z,1.60
2022-09-22T11:49:20.872Z,1.17
2022-09-22T11:52:31.113Z,1.30
2022-09-22T11:55:46.987Z,1.30
2022-09-22T11:58:23.192Z,1.30
2022-09-22T12:01:14.934Z,1.13
2022-09-22T12:04:17.575Z,1.15
2022-09-22T12:06:50.612Z,1.15
2022-09-22T12:09:42.312Z,1.60
2022-09-22T12:12:19.996Z,1.50
2022-09-22T12:15:38.089Z,1.40
2022-09-22T12:18:39.224Z,1.20
2022-09-22T12:21:49.039Z,1.13
2022-09-22T12:24:16.704Z,1.10
2022-09-22T12:26:48.131Z,1.70
2022-09-22T12:29:15.231Z,1.15
2022-09-22T12:31:48.405Z,1.10
2022-09-22T12:34:28.075Z,1.00
2022-09-22T12:37:08.404Z,1.25
2022-09-22T12:39:48.180Z,1.30
2022-09-22T12:42:40.255Z,0.90
2022-09-22T12:45:42.223Z,1.55
2022-09-22T12:48:22.900Z,0.90
2022-09-22T12:50:52.379Z,1.15
2022-09-22T12:53:23.821Z,0.93
2022-09-22T12:55:54.460Z,1.02
2022-09-22T12:58:21.561Z,1.17
2022-09-22T13:01:34.199Z,1.05
2022-09-22T13:04:18.023Z,1.40
2022-09-22T13:06:45.853Z,1.42
2022-09-22T13:09:25.951Z,1.02
2022-09-22T13:12:12.341Z,1.60
2022-09-22T13:15:07.345Z,1.27
2022-09-22T13:17:50.623Z,1.48
2022-09-22T13:20:35.509Z,0.75
2022-09-22T13:23:12.966Z,0.98
2022-09-22T13:25:42.551Z,1.33
2022-09-22T13:28:09.611Z,1.58
2022-09-22T13:30:40.176Z,1.58
2022-09-22T13:33:25.711Z,0.80
2022-09-22T13:36:16.883Z,1.30
2022-09-22T13:38:55.252Z,1.05
2022-09-22T13:41:29.764Z,0.98
2022-09-22T13:44:11.826Z,1.30
2022-09-22T13:46:50.305Z,1.08
2022-09-22T13:49:43.742Z,0.90
2022-09-22T13:52:32.224Z,1.38
2022-09-22T13:55:13.152Z,1.35
2022-09-22T13:57:41.684Z,1.40
2022-09-22T14:00:24.671Z,1.30
2022-09-22T14:02:55.867Z,1.33
2022-09-22T14:05:33.654Z,1.17
2022-09-22T14:08:12.807Z,1.00
2022-09-22T14:10:44.452Z,1.10
2022-09-22T14:13:53.927Z,1.42
2022-09-22T14:16:37.326Z,1.63
2022-09-22T14:20:00.227Z,1.20
2022-09-22T14:22:34.316Z,1.30
2022-09-22T14:25:03.651Z,1.52
2022-09-22T14:27:53.174Z,1.55
2022-09-22T14:30:21.934Z,1.33
2022-09-22T14:33:01.620Z,1.15
2022-09-22T14:35:37.308Z,1.00
2022-09-22T14:38:18.059Z,1.40
2022-09-22T14:41:02.857Z,1.30
2022-09-22T14:43:42.092Z,1.27
2022-09-22T14:46:41.336Z,1.20
2022-09-22T14:49:43.196Z,1.33
2022-09-22T14:52:34.711Z,1.50
2022-09-22T14:55:50.308Z,1.42
2022-09-22T14:58:30.197Z,1.40
2022-09-22T15:01:47.297Z,1.70
2022-09-22T15:04:28.525Z,1.08
2022-09-22T15:06:59.062Z,1.20
2022-09-22T15:09:42.586Z,1.15
2022-09-22T15:12:49.222Z,1.20
2022-09-22T15:15:29.211Z,1.55
2022-09-22T15:18:16.653Z,0.98
2022-09-22T15:21:02.890Z,0.98
2022-09-22T15:23:44.976Z,0.90
2022-09-22T15:26:25.684Z,1.17
2022-09-22T15:29:01.609Z,1.40
2022-09-22T15:31:29.903Z,0.98
2022-09-22T15:34:01.543Z,1.10
2022-09-22T15:36:32.881Z,1.13
2022-09-22T15:39:21.546Z,1.48
2022-09-22T15:41:49.593Z,1.25
2022-09-22T15:44:19.633Z,1.35
2022-09-22T15:46:54.044Z,1.13
2022-09-22T15:49:26.492Z,1.35
2022-09-22T15:51:57.478Z,1.15
2022-09-22T15:54:26.364Z,1.50
2022-09-22T15:56:56.383Z,1.50
2022-09-22T15:59:32.319Z,1.58
2022-09-22T16:02:01.201Z,1.50
2022-09-22T16:04:31.438Z,1.20
2022-09-22T16:09:32.096Z,1.63
2022-09-22T16:11:59.664Z,1.25
2022-09-22T16:14:26.954Z,1.20
2022-09-22T16:16:54.248Z,1.13
2022-09-22T16:19:21.576Z,0.98
2022-09-22T16:21:55.955Z,1.30
2022-09-22T16:24:23.473Z,1.55
2022-09-22T16:26:51.800Z,1.33
2022-09-22T16:29:20.356Z,1.42
2022-09-22T16:31:47.691Z,1.70
2022-09-22T16:34:15.022Z,1.30
2022-09-22T16:36:44.508Z,1.23
2022-09-22T16:39:11.759Z,1.20
2022-09-22T16:41:46.751Z,1.33
2022-09-22T16:44:14.225Z,1.30
2022-09-22T16:46:43.466Z,1.55
2022-09-22T16:49:16.245Z,1.40
2022-09-22T16:51:49.697Z,1.27
2022-09-22T16:54:19.465Z,1.52
2022-09-22T16:56:50.455Z,1.40
2022-09-22T16:59:23.216Z,1.48
2022-09-22T17:01:53.154Z,1.65
2022-09-22T17:04:20.567Z,1.35
2022-09-22T17:06:49.806Z,1.38
2022-09-22T17:09:18.940Z,1.50
2022-09-22T17:11:49.135Z,1.67
2022-09-22T17:14:24.409Z,1.52
2022-09-22T17:16:55.391Z,1.33
2022-09-22T17:19:27.899Z,1.48
2022-09-22T17:21:56.739Z,1.40
2022-09-22T17:24:26.818Z,1.40
2022-09-22T17:27:01.743Z,1.52
2022-09-22T17:29:32.595Z,1.30
2022-09-22T17:32:09.124Z,1.30
2022-09-22T17:34:38.266Z,1.55
2022-09-22T17:37:05.788Z,1.48
2022-09-22T17:39:33.308Z,1.23
2022-09-22T17:42:00.763Z,1.33
2022-09-22T17:44:30.979Z,1.88
2022-09-22T17:47:18.652Z,1.98
2022-09-22T17:50:04.743Z,1.73
2022-09-22T17:52:31.983Z,2.28
2022-09-22T17:55:06.978Z,2.10
2022-09-22T17:57:39.677Z,2.17
2022-09-22T18:00:20.932Z,1.83
2022-09-22T18:02:53.330Z,2.17
2022-09-22T18:05:26.490Z,2.03
2022-09-22T18:07:58.416Z,2.35
2022-09-22T18:10:30.919Z,2.08
2022-09-22T18:12:59.304Z,1.90
2022-09-22T18:15:28.031Z,1.80
2022-09-22T18:17:57.692Z,2.20
2022-09-22T18:20:26.227Z,1.77
2022-09-22T18:22:54.726Z,2.10
2022-09-22T18:25:25.474Z,1.90
2022-09-22T18:27:53.533Z,1.77
2022-09-22T18:30:20.975Z,2.13
2022-09-22T18:32:48.938Z,2.30
2022-09-22T18:35:16.668Z,2.35
2022-09-22T18:37:44.012Z,2.58
2022-09-22T18:40:13.052Z,3.15
2022-09-22T18:42:43.277Z,3.55
2022-09-22T18:45:12.432Z,3.38
2022-09-22T18:47:43.161Z,3.58
2022-09-22T18:50:12.054Z,2.80
2022-09-22T18:52:42.831Z,3.47
2022-09-22T18:55:14.075Z,3.47
2022-09-22T18:57:41.376Z,3.33
2022-09-22T19:00:12.500Z,3.60
2022-09-22T19:02:39.900Z,3.00
2022-09-22T19:05:07.899Z,2.90
2022-09-22T19:07:43.381Z,3.30
2022-09-22T19:10:21.478Z,3.03
2022-09-22T19:12:50.156Z,2.95
2022-09-22T19:15:19.319Z,3.13
2022-09-22T19:17:49.470Z,3.20
2022-09-22T19:20:23.286Z,2.80
2022-09-22T19:22:52.321Z,2.80
2022-09-22T19:25:22.074Z,3.22
2022-09-22T19:27:53.328Z,3.17
2022-09-22T19:30:25.579Z,3.22
2022-09-22T19:32:55.883Z,3.90
2022-09-22T19:35:23.347Z,2.85
2022-09-22T19:37:51.835Z,3.10
2022-09-22T19:40:24.752Z,3.10
2022-09-22T19:42:54.232Z,2.80
2022-09-22T19:45:23.972Z,3.20
2022-09-22T19:47:58.471Z,2.90
2022-09-22T19:50:26.486Z,3.08
2022-09-22T19:52:53.868Z,2.72
2022-09-22T19:55:21.499Z,2.67
2022-09-22T19:57:49.900Z,3.13
2022-09-22T20:00:17.978Z,3.15
2022-09-22T20:02:46.048Z,3.40
2022-09-22T20:05:21.952Z,3.75
2022-09-22T20:07:50.365Z,3.33
2022-09-22T20:10:22.495Z,2.58
2022-09-22T20:12:51.988Z,3.35
2022-09-22T20:15:20.272Z,2.63
2022-09-22T20:17:47.996Z,2.95
2022-09-22T20:20:25.784Z,3.03
2022-09-22T20:23:00.136Z,2.85
2022-09-22T20:25:32.275Z,3.40
2022-09-22T20:28:00.491Z,2.70
2022-09-22T20:30:27.900Z,2.70
2022-09-22T20:32:55.161Z,3.35
2022-09-22T20:35:22.442Z,2.78
2022-09-22T20:37:51.488Z,3.10
2022-09-22T20:40:22.022Z,2.83
2022-09-22T20:45:25.207Z,3.10
2022-09-22T20:47:56.049Z,3.35
2022-09-22T20:50:23.640Z,3.40
2022-09-22T20:52:50.953Z,3.35
2022-09-22T20:55:18.264Z,3.70
2022-09-22T20:57:45.553Z,3.63
2022-09-22T21:00:16.128Z,3.60
2022-09-22T21:05:11.524Z,3.40
2022-09-22T21:07:39.612Z,3.17
2022-09-22T21:10:25.644Z,3.28
2022-09-22T21:12:55.126Z,3.63
2022-09-22T21:15:22.822Z,2.97
2022-09-22T21:17:50.417Z,2.75
2022-09-22T21:20:17.743Z,3.45
2022-09-22T21:22:45.102Z,3.20
2022-09-22T21:25:12.863Z,3.03
2022-09-22T21:27:40.284Z,3.00
2022-09-22T21:30:08.495Z,2.72
2022-09-22T21:32:35.789Z,3.10
2022-09-22T21:35:03.184Z,3.60
2022-09-22T21:37:31.334Z,2.70
2022-09-22T21:39:58.596Z,3.10
2022-09-22T21:42:26.876Z,3.70
2022-09-22T21:44:54.171Z,3.03
2022-09-22T21:47:21.421Z,3.38
2022-09-22T21:49:50.377Z,3.42
2022-09-22T21:52:17.685Z,3.13
2022-09-22T21:54:44.933Z,3.67
2022-09-22T21:57:12.215Z,3.30
2022-09-22T21:59:39.455Z,3.38
2022-09-22T22:02:06.719Z,3.10
2022-09-22T22:04:34.430Z,3.50
2022-09-22T22:07:01.917Z,3.30
2022-09-22T22:09:29.180Z,3.05
2022-09-22T22:11:59.331Z,3.58
2022-09-22T22:14:33.426Z,3.70
2022-09-22T22:17:02.345Z,3.20
2022-09-22T22:19:29.956Z,3.20
2022-09-22T22:21:57.248Z,3.60
2022-09-22T22:24:28.753Z,3.60
2022-09-22T22:27:07.817Z,3.58
2022-09-22T22:29:36.613Z,3.58
2022-09-22T22:32:08.871Z,3.55
2022-09-22T22:34:36.732Z,3.90
2022-09-22T22:37:07.035Z,3.53
2022-09-22T22:39:34.403Z,3.50
2022-09-22T22:42:02.517Z,3.60
2022-09-22T22:44:29.808Z,3.78
2022-09-22T22:46:57.163Z,3.70
2022-09-22T22:49:25.340Z,3.38
2022-09-22T22:51:52.778Z,3.75
2022-09-22T22:54:20.046Z,3.55
2022-09-22T22:56:51.001Z,3.47
2022-09-22T22:59:19.318Z,4.22
2022-09-22T23:01:46.669Z,3.38
2022-09-22T23:04:14.031Z,3.13
2022-09-22T23:06:44.093Z,3.53
2022-09-22T23:09:16.742Z,3.78
2022-09-22T23:11:46.194Z,3.67
2022-09-22T23:14:15.893Z,3.70
2022-09-22T23:16:47.591Z,3.83
2022-09-22T23:19:18.274Z,3.25
2022-09-22T23:21:46.718Z,3.63
2022-09-22T23:24:18.816Z,4.05
2022-09-22T23:26:47.040Z,3.88
2022-09-22T23:29:14.491Z,4.22
2022-09-22T23:31:42.253Z,3.83
2022-09-22T23:34:09.675Z,3.67
2022-09-22T23:36:37.052Z,3.53
2022-09-22T23:39:05.031Z,3.95
2022-09-22T23:41:36.210Z,3.58
2022-09-22T23:44:08.463Z,3.75
2022-09-22T23:46:37.468Z,3.50
2022-09-22T23:49:06.151Z,3.40
2022-09-22T23:51:33.419Z,3.85
2022-09-22T23:54:01.269Z,3.70
2022-09-22T23:56:28.681Z,3.30
2022-09-22T23:58:56.121Z,3.70
